Time;durP1;ratioP1;P1;durP2;ratioP2;P2;SDS_P1;SDS_P2;PMS_P1;PMS_P2;Temp;Humidity;BMP_temperature;BMP_pressure;BME280_temperature;BME280_humidity;BME280_pressure;Samples;Min_cycle;Max_cycle;Signal;HPM_P1;HPM_P2
2023/04/04 00:00:19;;;;;;;2.80;1.00;;;;;;;;;;6145746;23;20092;-82
2023/04/04 00:02:45;;;;;;;3.25;1.00;;;;;;;;;;6119871;23;20749;-81
2023/04/04 00:05:10;;;;;;;3.75;0.70;;;;;;;;;;6147147;23;20021;-82
2023/04/04 00:07:36;;;;;;;3.38;1.00;;;;;;;;;;6095185;23;20462;-82
2023/04/04 00:10:01;;;;;;;2.58;0.80;;;;;;;;;;6119744;23;20013;-82
2023/04/04 00:12:27;;;;;;;3.10;1.10;;;;;;;;;;6145708;23;20021;-82
2023/04/04 00:14:53;;;;;;;2.42;0.90;;;;;;;;;;6095671;23;20384;-81
2023/04/04 00:17:18;;;;;;;3.35;1.10;;;;;;;;;;6119116;23;20096;-82
2023/04/04 00:19:45;;;;;;;5.55;1.05;;;;;;;;;;6119686;23;20387;-81
2023/04/04 00:22:12;;;;;;;2.00;0.97;;;;;;;;;;6119926;23;20501;-83
2023/04/04 00:24:38;;;;;;;3.38;0.90;;;;;;;;;;6121197;23;20269;-82
2023/04/04 00:27:03;;;;;;;2.13;0.60;;;;;;;;;;6118976;23;20045;-81
2023/04/04 00:29:28;;;;;;;3.78;1.27;;;;;;;;;;6145978;23;20072;-81
2023/04/04 00:31:54;;;;;;;3.67;1.13;;;;;;;;;;6094281;23;20017;-81
2023/04/04 00:34:19;;;;;;;2.17;0.90;;;;;;;;;;6119132;23;20022;-82
2023/04/04 00:36:45;;;;;;;5.60;1.00;;;;;;;;;;6094914;23;20009;-81
2023/04/04 00:39:10;;;;;;;3.10;0.88;;;;;;;;;;6096548;23;20348;-81
2023/04/04 00:41:36;;;;;;;4.32;1.13;;;;;;;;;;6118989;23;20018;-82
2023/04/04 00:44:01;;;;;;;3.65;1.00;;;;;;;;;;6119610;23;20366;-82
2023/04/04 00:46:28;;;;;;;2.42;0.90;;;;;;;;;;6094249;23;20633;-81
2023/04/04 00:48:54;;;;;;;2.28;0.90;;;;;;;;;;6094823;23;20018;-82
2023/04/04 00:51:19;;;;;;;4.00;1.17;;;;;;;;;;6119247;23;20112;-82
2023/04/04 00:53:46;;;;;;;3.65;1.10;;;;;;;;;;6144651;23;20076;-82
2023/04/04 00:56:12;;;;;;;3.30;0.80;;;;;;;;;;6120087;23;20018;-83
2023/04/04 00:58:37;;;;;;;3.42;1.10;;;;;;;;;;6119398;23;20076;-82
2023/04/04 01:01:04;;;;;;;3.67;0.73;;;;;;;;;;6119264;23;22171;-83
2023/04/04 01:03:29;;;;;;;2.65;0.90;;;;;;;;;;6145500;23;20021;-82
2023/04/04 01:05:55;;;;;;;2.38;0.85;;;;;;;;;;6093865;23;20013;-83
2023/04/04 01:08:22;;;;;;;2.88;0.80;;;;;;;;;;6145261;23;20029;-82
2023/04/04 01:10:49;;;;;;;4.68;0.90;;;;;;;;;;6117245;23;20062;-81
2023/04/04 01:13:15;;;;;;;;;;;;;;;;;;6119381;23;20470;-82
2023/04/04 01:15:41;;;;;;;4.65;1.05;;;;;;;;;;6143467;23;19920;-83
2023/04/04 01:18:07;;;;;;;3.70;0.90;;;;;;;;;;6141094;23;20021;-83
2023/04/04 01:20:36;;;;;;;2.38;0.85;;;;;;;;;;6094303;23;20018;-83
2023/04/04 01:23:03;;;;;;;4.10;1.40;;;;;;;;;;6094801;23;20017;-82
2023/04/04 01:25:33;;;;;;;2.92;1.02;;;;;;;;;;6118774;23;20024;-82
2023/04/04 01:27:59;;;;;;;4.40;1.02;;;;;;;;;;6119759;23;20142;-83
2023/04/04 01:30:27;;;;;;;3.33;0.90;;;;;;;;;;6119349;23;20094;-82
2023/04/04 01:32:59;;;;;;;5.20;1.17;;;;;;;;;;6094291;23;20469;-82
2023/04/04 01:35:34;;;;;;;4.78;1.60;;;;;;;;;;6118660;23;20396;-83
2023/04/04 01:38:05;;;;;;;2.25;0.75;;;;;;;;;;6118274;23;20469;-82
2023/04/04 01:40:38;;;;;;;3.58;1.00;;;;;;;;;;6118890;23;20024;-82
2023/04/04 01:43:03;;;;;;;2.22;0.80;;;;;;;;;;6095621;23;20030;-82
2023/04/04 01:45:29;;;;;;;4.22;1.00;;;;;;;;;;6119079;23;20447;-82
2023/04/04 01:47:55;;;;;;;3.80;0.90;;;;;;;;;;6119384;23;20010;-82
2023/04/04 01:50:21;;;;;;;5.03;1.20;;;;;;;;;;6118160;23;20132;-83
2023/04/04 01:52:47;;;;;;;3.03;1.38;;;;;;;;;;6145314;23;20328;-82
2023/04/04 01:55:12;;;;;;;3.30;1.17;;;;;;;;;;6119214;23;20017;-82
2023/04/04 01:57:38;;;;;;;2.90;1.00;;;;;;;;;;6144507;23;20348;-82
2023/04/04 02:00:04;;;;;;;2.78;1.13;;;;;;;;;;6119395;23;20013;-82
2023/04/04 02:02:30;;;;;;;3.88;0.93;;;;;;;;;;6117994;23;20032;-82
2023/04/04 02:04:55;;;;;;;2.22;0.93;;;;;;;;;;6094911;23;20344;-82
2023/04/04 02:07:21;;;;;;;3.15;1.25;;;;;;;;;;6119086;23;20018;-82
2023/04/04 02:09:46;;;;;;;5.45;1.55;;;;;;;;;;6145079;23;20075;-82
2023/04/04 02:12:13;;;;;;;3.22;1.23;;;;;;;;;;6119337;23;20017;-82
2023/04/04 02:14:39;;;;;;;6.10;1.37;;;;;;;;;;6145372;23;20117;-82
2023/04/04 02:17:05;;;;;;;1.90;0.82;;;;;;;;;;6094458;23;20359;-82
2023/04/04 02:19:31;;;;;;;4.25;1.13;;;;;;;;;;6120720;23;20073;-82
2023/04/04 02:21:56;;;;;;;2.92;0.85;;;;;;;;;;6146670;23;20013;-83
2023/04/04 02:24:21;;;;;;;5.07;1.63;;;;;;;;;;6096330;23;20100;-83
2023/04/04 02:26:47;;;;;;;4.18;1.40;;;;;;;;;;6145819;23;20089;-82
2023/04/04 02:29:12;;;;;;;4.32;1.20;;;;;;;;;;6097259;23;20020;-82
2023/04/04 02:31:38;;;;;;;4.82;1.65;;;;;;;;;;6146075;23;20044;-82
2023/04/04 02:34:03;;;;;;;3.03;0.95;;;;;;;;;;6096428;23;20021;-83
2023/04/04 02:36:29;;;;;;;3.67;1.50;;;;;;;;;;6146603;23;20464;-82
2023/04/04 02:38:54;;;;;;;4.00;1.23;;;;;;;;;;6146730;23;20005;-82
2023/04/04 02:41:20;;;;;;;3.45;0.90;;;;;;;;;;6121095;23;20021;-82
2023/04/04 02:43:45;;;;;;;3.25;1.23;;;;;;;;;;6120521;23;20013;-82
2023/04/04 02:46:11;;;;;;;2.58;0.90;;;;;;;;;;6146652;23;20010;-83
2023/04/04 02:48:36;;;;;;;3.45;0.95;;;;;;;;;;6147106;23;20028;-82
2023/04/04 02:51:01;;;;;;;3.92;1.20;;;;;;;;;;6118906;23;20029;-82
2023/04/04 02:53:27;;;;;;;2.70;0.82;;;;;;;;;;6096044;23;20025;-82
2023/04/04 02:55:53;;;;;;;4.97;1.08;;;;;;;;;;6120404;23;20092;-82
2023/04/04 02:58:18;;;;;;;4.78;1.25;;;;;;;;;;6145934;23;20021;-82
2023/04/04 03:00:46;;;;;;;3.40;1.13;;;;;;;;;;6146562;23;20013;-82
2023/04/04 03:03:11;;;;;;;;;;;;;;;;;;6121393;23;20041;-82
2023/04/04 03:05:37;;;;;;;7.33;1.47;;;;;;;;;;6144683;23;20236;-82
2023/04/04 03:08:03;;;;;;;1.95;1.00;;;;;;;;;;6120361;23;20588;-83
2023/04/04 03:10:29;;;;;;;3.47;1.42;;;;;;;;;;6120064;23;20452;-83
2023/04/04 03:12:55;;;;;;;4.00;1.23;;;;;;;;;;6096173;23;20020;-82
2023/04/04 03:15:21;;;;;;;3.40;1.30;;;;;;;;;;6095392;23;20014;-82
2023/04/04 03:17:46;;;;;;;5.13;1.30;;;;;;;;;;6120791;23;20017;-81
2023/04/04 03:20:13;;;;;;;5.68;1.33;;;;;;;;;;6120722;23;20018;-81
2023/04/04 03:22:39;;;;;;;3.28;0.80;;;;;;;;;;6146287;23;20021;-83
2023/04/04 03:25:05;;;;;;;3.65;1.17;;;;;;;;;;6120171;23;20336;-82
2023/04/04 03:27:31;;;;;;;6.03;1.50;;;;;;;;;;6144749;23;20040;-82
2023/04/04 03:29:58;;;;;;;2.83;1.10;;;;;;;;;;6095726;23;20036;-81
2023/04/04 03:32:23;;;;;;;2.30;0.95;;;;;;;;;;6119654;23;20333;-82
2023/04/04 03:34:49;;;;;;;4.80;1.20;;;;;;;;;;6146640;23;20010;-82
2023/04/04 03:37:14;;;;;;;2.88;0.90;;;;;;;;;;6145601;23;20023;-81
2023/04/04 03:39:40;;;;;;;5.18;1.00;;;;;;;;;;6147626;23;20017;-82
2023/04/04 03:42:05;;;;;;;3.13;1.15;;;;;;;;;;6093770;23;20738;-82
2023/04/04 03:44:31;;;;;;;4.18;0.93;;;;;;;;;;6120097;23;20177;-82
2023/04/04 03:46:56;;;;;;;4.18;1.13;;;;;;;;;;6094577;23;20013;-82
2023/04/04 03:49:21;;;;;;;3.90;1.40;;;;;;;;;;6095560;23;20017;-82
2023/04/04 03:51:47;;;;;;;4.70;1.73;;;;;;;;;;6145797;23;20065;-82
2023/04/04 03:54:13;;;;;;;2.28;1.00;;;;;;;;;;6121048;23;20439;-82
2023/04/04 03:56:38;;;;;;;4.25;1.20;;;;;;;;;;6119851;23;20013;-82
2023/04/04 03:59:03;;;;;;;3.03;1.33;;;;;;;;;;6095228;23;20021;-82
2023/04/04 04:01:29;;;;;;;5.82;1.20;;;;;;;;;;6119924;23;20075;-82
2023/04/04 04:03:54;;;;;;;4.07;1.20;;;;;;;;;;6120116;23;20120;-82
2023/04/04 04:06:19;;;;;;;7.18;1.40;;;;;;;;;;6095165;23;20021;-82
2023/04/04 04:08:45;;;;;;;5.00;1.52;;;;;;;;;;6095259;23;20462;-81
2023/04/04 04:11:11;;;;;;;3.13;1.10;;;;;;;;;;6095321;23;20352;-82
2023/04/04 04:13:37;;;;;;;2.95;1.13;;;;;;;;;;6095516;23;20066;-81
2023/04/04 04:16:03;;;;;;;4.43;1.27;;;;;;;;;;6119218;23;20044;-81
2023/04/04 04:18:29;;;;;;;4.30;1.55;;;;;;;;;;6120029;23;20043;-81
2023/04/04 04:20:58;;;;;;;5.00;1.13;;;;;;;;;;6119066;23;20088;-81
2023/04/04 04:23:24;;;;;;;3.97;1.13;;;;;;;;;;6095061;23;20088;-82
2023/04/04 04:25:50;;;;;;;5.85;1.20;;;;;;;;;;6118945;23;20013;-81
2023/04/04 04:28:15;;;;;;;5.50;1.25;;;;;;;;;;6119879;23;20017;-81
2023/04/04 04:30:41;;;;;;;5.05;1.40;;;;;;;;;;6119896;23;20033;-82
2023/04/04 04:33:07;;;;;;;5.45;1.52;;;;;;;;;;6119467;23;20014;-82
2023/04/04 04:35:36;;;;;;;4.47;1.50;;;;;;;;;;6145567;23;20037;-82
2023/04/04 04:38:01;;;;;;;4.53;1.40;;;;;;;;;;6145925;23;20005;-82
2023/04/04 04:40:27;;;;;;;3.88;1.63;;;;;;;;;;6119133;23;20700;-81
2023/04/04 04:42:52;;;;;;;4.00;1.25;;;;;;;;;;6118568;23;20036;-81
2023/04/04 04:45:17;;;;;;;3.97;1.52;;;;;;;;;;6144882;23;20074;-82
2023/04/04 04:47:43;;;;;;;4.85;1.08;;;;;;;;;;6095321;23;20012;-82
2023/04/04 04:50:08;;;;;;;3.65;1.33;;;;;;;;;;6145536;23;20360;-82
2023/04/04 04:52:37;;;;;;;3.50;1.58;;;;;;;;;;6144897;23;20061;-82
2023/04/04 04:55:04;;;;;;;5.68;1.50;;;;;;;;;;6119569;23;20023;-82
2023/04/04 04:57:30;;;;;;;3.17;1.13;;;;;;;;;;6094237;23;20032;-81
2023/04/04 04:59:55;;;;;;;4.43;1.20;;;;;;;;;;6145891;23;20336;-82
2023/04/04 05:02:20;;;;;;;4.22;1.33;;;;;;;;;;6118871;23;20021;-81
2023/04/04 05:04:46;;;;;;;6.85;1.33;;;;;;;;;;6095334;23;20014;-81
2023/04/04 05:07:11;;;;;;;2.97;1.40;;;;;;;;;;6119186;23;20243;-82
2023/04/04 05:09:37;;;;;;;3.40;1.30;;;;;;;;;;6145767;23;20797;-81
2023/04/04 05:12:03;;;;;;;3.85;1.45;;;;;;;;;;6119337;23;20033;-82
2023/04/04 05:14:28;;;;;;;3.28;1.25;;;;;;;;;;6119558;23;20494;-81
2023/04/04 05:16:53;;;;;;;4.82;1.40;;;;;;;;;;6119792;23;20044;-81
2023/04/04 05:19:19;;;;;;;3.80;1.50;;;;;;;;;;6118825;23;20029;-81
2023/04/04 05:21:44;;;;;;;3.33;1.35;;;;;;;;;;6145216;23;20347;-81
2023/04/04 05:24:10;;;;;;;5.22;1.35;;;;;;;;;;6146430;23;20017;-81
2023/04/04 05:26:35;;;;;;;3.00;1.42;;;;;;;;;;6119304;23;20013;-81
2023/04/04 05:29:01;;;;;;;3.50;1.17;;;;;;;;;;6145933;23;20016;-81
2023/04/04 05:31:26;;;;;;;4.38;1.27;;;;;;;;;;6117979;23;20021;-81
2023/04/04 05:33:52;;;;;;;2.85;1.30;;;;;;;;;;6094876;23;20022;-81
2023/04/04 05:36:18;;;;;;;3.38;1.58;;;;;;;;;;6144145;23;20056;-81
2023/04/04 05:38:43;;;;;;;5.43;1.65;;;;;;;;;;6120619;23;20391;-82
2023/04/04 05:41:09;;;;;;;5.43;1.70;;;;;;;;;;6118502;23;20024;-81
2023/04/04 05:43:35;;;;;;;3.47;1.30;;;;;;;;;;6145302;23;20056;-81
2023/04/04 05:46:00;;;;;;;5.30;1.10;;;;;;;;;;6143902;23;20355;-81
2023/04/04 05:48:26;;;;;;;3.97;1.38;;;;;;;;;;6145239;23;20021;-81
2023/04/04 05:50:51;;;;;;;7.15;1.70;;;;;;;;;;6093858;23;20027;-80
2023/04/04 05:53:16;;;;;;;3.53;1.35;;;;;;;;;;6119280;23;20125;-80
2023/04/04 05:55:42;;;;;;;3.67;1.42;;;;;;;;;;6121290;23;20324;-80
2023/04/04 05:58:07;;;;;;;3.25;1.30;;;;;;;;;;6146719;23;20014;-81
2023/04/04 06:00:33;;;;;;;4.95;1.65;;;;;;;;;;6146352;23;20049;-80
2023/04/04 06:02:58;;;;;;;4.65;1.92;;;;;;;;;;6120828;23;20092;-81
2023/04/04 06:05:24;;;;;;;4.03;1.50;;;;;;;;;;6146151;23;20442;-81
2023/04/04 06:07:49;;;;;;;4.38;1.60;;;;;;;;;;6120137;23;20013;-80
2023/04/04 06:10:15;;;;;;;4.70;1.60;;;;;;;;;;6145595;23;20643;-80
2023/04/04 06:12:40;;;;;;;4.50;1.50;;;;;;;;;;6096851;23;20017;-80
2023/04/04 06:15:06;;;;;;;5.72;1.48;;;;;;;;;;6096717;23;20017;-81
2023/04/04 06:17:32;;;;;;;4.22;1.60;;;;;;;;;;6146720;23;20467;-80
2023/04/04 06:19:57;;;;;;;6.70;1.30;;;;;;;;;;6096501;23;20033;-81
2023/04/04 06:22:23;;;;;;;5.75;1.42;;;;;;;;;;6144945;23;20079;-81
2023/04/04 06:24:48;;;;;;;8.32;2.20;;;;;;;;;;6120897;23;20018;-81
2023/04/04 06:27:14;;;;;;;4.10;1.48;;;;;;;;;;6119924;23;20010;-80
2023/04/04 06:29:40;;;;;;;5.40;1.85;;;;;;;;;;6121118;23;20022;-80
2023/04/04 06:32:05;;;;;;;4.40;1.63;;;;;;;;;;6119906;23;20350;-80
2023/04/04 06:34:31;;;;;;;4.85;1.80;;;;;;;;;;6096166;23;20096;-80
2023/04/04 06:36:56;;;;;;;4.80;1.75;;;;;;;;;;6119498;23;20018;-80
2023/04/04 06:39:22;;;;;;;5.47;1.70;;;;;;;;;;6120017;23;20045;-79
2023/04/04 06:41:47;;;;;;;3.75;1.48;;;;;;;;;;6120051;23;20068;-80
2023/04/04 06:44:13;;;;;;;4.88;1.23;;;;;;;;;;6120852;23;20021;-80
2023/04/04 06:46:38;;;;;;;5.57;1.25;;;;;;;;;;6119899;23;20482;-79
2023/04/04 06:49:05;;;;;;;5.25;0.90;;;;;;;;;;6120399;23;20017;-79
2023/04/04 06:51:32;;;;;;;6.30;1.23;;;;;;;;;;6119891;23;20490;-80
2023/04/04 06:53:57;;;;;;;3.63;1.10;;;;;;;;;;6095173;23;20014;-81
2023/04/04 06:56:23;;;;;;;2.90;1.30;;;;;;;;;;6119530;23;20337;-80
2023/04/04 06:58:49;;;;;;;4.68;1.25;;;;;;;;;;6145750;23;20017;-80
2023/04/04 07:01:15;;;;;;;5.28;1.27;;;;;;;;;;6120295;23;20021;-80
2023/04/04 07:03:40;;;;;;;3.55;0.88;;;;;;;;;;6147069;23;20021;-80
2023/04/04 07:06:06;;;;;;;7.43;1.25;;;;;;;;;;6119538;23;20044;-80
2023/04/04 07:08:34;;;;;;;3.85;0.90;;;;;;;;;;6145336;23;20527;-79
2023/04/04 07:11:00;;;;;;;2.53;1.02;;;;;;;;;;6120980;23;20433;-79
2023/04/04 07:13:25;;;;;;;4.25;0.93;;;;;;;;;;6120377;23;20017;-79
2023/04/04 07:15:51;;;;;;;2.80;0.93;;;;;;;;;;6120529;23;20015;-79
2023/04/04 07:18:16;;;;;;;5.70;1.50;;;;;;;;;;6146883;23;20399;-80
2023/04/04 07:20:42;;;;;;;3.05;1.00;;;;;;;;;;6096215;23;20472;-81
2023/04/04 07:23:10;;;;;;;3.67;1.17;;;;;;;;;;6120236;23;20424;-79
2023/04/04 07:25:36;;;;;;;2.70;1.00;;;;;;;;;;6095750;23;20017;-79
2023/04/04 07:28:02;;;;;;;2.63;0.85;;;;;;;;;;6145422;23;20466;-80
2023/04/04 07:30:29;;;;;;;2.45;0.98;;;;;;;;;;6145232;23;20021;-80
2023/04/04 07:33:01;;;;;;;2.50;1.00;;;;;;;;;;6118775;23;20049;-80
2023/04/04 07:35:27;;;;;;;3.67;0.80;;;;;;;;;;6131189;23;20239;-79
2023/04/04 07:37:53;;;;;;;2.50;1.00;;;;;;;;;;6095433;23;20478;-79
2023/04/04 07:40:18;;;;;;;4.13;0.70;;;;;;;;;;6119637;23;20025;-80
2023/04/04 07:42:44;;;;;;;2.85;0.80;;;;;;;;;;6121131;23;20075;-80
2023/04/04 07:45:13;;;;;;;3.78;0.93;;;;;;;;;;6095545;23;20021;-82
2023/04/04 07:47:45;;;;;;;4.60;1.10;;;;;;;;;;6120266;23;20013;-79
2023/04/04 07:50:14;;;;;;;3.13;1.20;;;;;;;;;;6120124;23;20068;-79
2023/04/04 07:52:40;;;;;;;3.20;1.17;;;;;;;;;;6095587;23;20114;-80
2023/04/04 07:55:07;;;;;;;;;;;;;;;;;;6119347;23;20080;-80
2023/04/04 07:57:37;;;;;;;2.65;0.90;;;;;;;;;;6169502;23;19918;-80
2023/04/04 08:00:05;;;;;;;5.43;1.10;;;;;;;;;;6096701;23;20491;-80
2023/04/04 08:02:31;;;;;;;3.42;1.10;;;;;;;;;;6094189;23;20994;-81
2023/04/04 08:04:56;;;;;;;10.32;3.03;;;;;;;;;;6120232;23;20013;-81
2023/04/04 08:07:22;;;;;;;2.88;1.00;;;;;;;;;;6118554;23;20040;-81
2023/04/04 08:09:48;;;;;;;2.08;0.70;;;;;;;;;;6120437;23;20032;-81
2023/04/04 08:12:13;;;;;;;2.75;0.88;;;;;;;;;;6119088;23;20458;-81
2023/04/04 08:14:38;;;;;;;3.28;0.95;;;;;;;;;;6145823;23;20494;-82
2023/04/04 08:17:04;;;;;;;2.55;0.80;;;;;;;;;;6118542;23;20044;-81
2023/04/04 08:19:30;;;;;;;2.03;0.63;;;;;;;;;;6119236;23;20052;-82
2023/04/04 08:21:55;;;;;;;3.80;0.98;;;;;;;;;;6118584;23;20009;-82
2023/04/04 08:24:21;;;;;;;3.90;0.90;;;;;;;;;;6145071;23;20486;-81
2023/04/04 08:26:47;;;;;;;2.97;0.85;;;;;;;;;;6119632;23;20879;-82
2023/04/04 08:29:12;;;;;;;2.97;0.90;;;;;;;;;;6122289;23;20018;-83
2023/04/04 08:31:39;;;;;;;3.25;0.82;;;;;;;;;;6117653;23;20021;-83
2023/04/04 08:34:06;;;;;;;2.28;0.77;;;;;;;;;;6119943;23;20335;-84
2023/04/04 08:36:32;;;;;;;1.70;0.70;;;;;;;;;;6119949;23;20036;-83
2023/04/04 08:38:58;;;;;;;4.40;1.00;;;;;;;;;;6118740;23;20452;-81
2023/04/04 08:41:24;;;;;;;2.95;1.20;;;;;;;;;;6119598;23;20088;-81
2023/04/04 08:43:53;;;;;;;2.20;0.70;;;;;;;;;;6104445;23;20028;-81
2023/04/04 08:46:22;;;;;;;2.10;0.50;;;;;;;;;;6094843;23;20025;-81
2023/04/04 08:48:49;;;;;;;2.20;0.70;;;;;;;;;;6144878;23;20017;-81
2023/04/04 08:51:14;;;;;;;2.10;0.80;;;;;;;;;;6119451;23;20025;-81
2023/04/04 08:53:40;;;;;;;2.40;0.80;;;;;;;;;;6145093;23;20625;-81
2023/04/04 08:56:06;;;;;;;1.92;0.75;;;;;;;;;;6093390;23;20014;-81
2023/04/04 08:58:31;;;;;;;2.70;0.70;;;;;;;;;;6118981;23;20072;-82
2023/04/04 09:00:57;;;;;;;3.03;0.80;;;;;;;;;;6118614;23;20016;-81
2023/04/04 09:03:26;;;;;;;2.97;0.80;;;;;;;;;;6118816;23;20014;-82
2023/04/04 09:05:54;;;;;;;4.47;0.77;;;;;;;;;;6118751;23;20013;-82
2023/04/04 09:08:22;;;;;;;4.32;1.23;;;;;;;;;;6119149;23;20025;-81
2023/04/04 09:10:48;;;;;;;1.52;0.73;;;;;;;;;;6094976;23;20710;-82
2023/04/04 09:13:13;;;;;;;3.17;0.90;;;;;;;;;;6120225;23;20005;-82
2023/04/04 09:15:41;;;;;;;2.85;0.95;;;;;;;;;;6118467;23;20332;-83
2023/04/04 09:18:06;;;;;;;1.90;0.75;;;;;;;;;;6119390;23;20017;-82
2023/04/04 09:20:41;;;;;;;5.07;0.98;;;;;;;;;;6143913;23;20622;-82
2023/04/04 09:23:12;;;;;;;3.95;0.82;;;;;;;;;;6118674;23;20022;-81
2023/04/04 09:25:44;;;;;;;2.95;1.10;;;;;;;;;;6114595;23;20099;-81
2023/04/04 09:28:10;;;;;;;2.78;0.80;;;;;;;;;;6145170;23;20065;-82
2023/04/04 09:30:35;;;;;;;2.72;0.95;;;;;;;;;;6143457;23;20025;-82
2023/04/04 09:33:03;;;;;;;4.18;1.00;;;;;;;;;;6094915;23;20018;-83
2023/04/04 09:35:31;;;;;;;2.92;0.60;;;;;;;;;;6118324;23;20355;-81
2023/04/04 09:37:57;;;;;;;2.78;1.02;;;;;;;;;;6118794;23;20089;-83
2023/04/04 09:40:22;;;;;;;1.98;0.60;;;;;;;;;;6086800;23;20052;-83
2023/04/04 09:42:49;;;;;;;3.15;0.65;;;;;;;;;;6134996;23;20026;-83
2023/04/04 09:45:15;;;;;;;3.45;0.98;;;;;;;;;;6145339;23;20045;-83
2023/04/04 09:47:43;;;;;;;3.35;0.75;;;;;;;;;;6119224;23;20010;-83
2023/04/04 09:50:09;;;;;;;2.03;0.55;;;;;;;;;;6095077;23;20336;-83
2023/04/04 09:52:37;;;;;;;2.90;0.73;;;;;;;;;;6117838;23;20021;-83
2023/04/04 09:55:04;;;;;;;1.83;0.60;;;;;;;;;;6144459;23;20061;-83
2023/04/04 09:57:31;;;;;;;2.38;0.80;;;;;;;;;;6105102;23;20118;-84
2023/04/04 09:59:58;;;;;;;3.03;0.85;;;;;;;;;;6118662;23;20013;-84
2023/04/04 10:02:24;;;;;;;2.33;0.70;;;;;;;;;;6094215;23;20468;-84
2023/04/04 10:04:52;;;;;;;2.47;0.70;;;;;;;;;;6119653;23;20017;-83
2023/04/04 10:07:17;;;;;;;3.08;0.68;;;;;;;;;;6118240;23;20044;-82
2023/04/04 10:09:45;;;;;;;2.47;0.73;;;;;;;;;;6145341;23;20010;-81
2023/04/04 10:12:12;;;;;;;2.75;0.73;;;;;;;;;;6069666;23;20021;-82
2023/04/04 10:14:37;;;;;;;3.10;0.70;;;;;;;;;;6120152;23;20391;-82
2023/04/04 10:17:08;;;;;;;1.73;0.50;;;;;;;;;;6117503;23;20056;-82
2023/04/04 10:19:36;;;;;;;1.70;0.70;;;;;;;;;;6118230;23;20021;-83
2023/04/04 10:22:02;;;;;;;2.35;0.73;;;;;;;;;;6118054;23;20487;-82
2023/04/04 10:24:28;;;;;;;3.80;0.75;;;;;;;;;;6094326;23;20022;-83
2023/04/04 10:26:54;;;;;;;1.02;0.47;;;;;;;;;;6144791;23;20020;-82
2023/04/04 10:29:20;;;;;;;2.15;0.90;;;;;;;;;;6094599;23;20017;-84
2023/04/04 10:31:49;;;;;;;2.40;0.82;;;;;;;;;;6143606;23;20081;-82
2023/04/04 10:34:20;;;;;;;4.00;0.98;;;;;;;;;;6145480;23;20024;-83
2023/04/04 10:36:48;;;;;;;3.85;1.08;;;;;;;;;;6094597;23;20024;-83
2023/04/04 10:39:21;;;;;;;3.50;1.38;;;;;;;;;;6095069;23;20013;-82
2023/04/04 10:41:49;;;;;;;5.65;1.25;;;;;;;;;;6119612;23;20013;-83
2023/04/04 10:44:37;;;;;;;7.05;1.63;;;;;;;;;;6121460;23;20029;-83
2023/04/04 10:47:13;;;;;;;4.47;0.98;;;;;;;;;;6119986;23;20687;-83
2023/04/04 10:49:44;;;;;;;1.77;0.60;;;;;;;;;;6095682;23;20041;-83
2023/04/04 10:52:12;;;;;;;2.10;0.63;;;;;;;;;;6120581;23;20025;-82
2023/04/04 10:54:38;;;;;;;3.45;0.55;;;;;;;;;;6120321;23;20049;-83
2023/04/04 10:57:03;;;;;;;1.52;0.50;;;;;;;;;;6146411;23;20017;-83
2023/04/04 10:59:29;;;;;;;2.33;0.52;;;;;;;;;;6120645;23;20022;-82
2023/04/04 11:01:57;;;;;;;1.60;0.40;;;;;;;;;;6118291;23;20017;-82
2023/04/04 11:04:41;;;;;;;2.20;0.40;;;;;;;;;;6095839;23;20768;-83
2023/04/04 11:07:16;;;;;;;3.60;0.60;;;;;;;;;;6119896;23;20108;-83
2023/04/04 11:09:51;;;;;;;2.90;0.40;;;;;;;;;;6146717;23;20014;-83
2023/04/04 11:12:25;;;;;;;1.48;0.50;;;;;;;;;;6105180;23;20563;-82
2023/04/04 11:15:08;;;;;;;2.75;0.70;;;;;;;;;;6145567;23;20088;-82
2023/04/04 11:17:49;;;;;;;1.45;0.50;;;;;;;;;;6119298;23;20052;-84
2023/04/04 11:20:17;;;;;;;1.85;0.55;;;;;;;;;;6144474;23;20017;-82
2023/04/04 11:22:44;;;;;;;1.60;0.65;;;;;;;;;;6096249;23;20616;-82
2023/04/04 11:25:29;;;;;;;1.92;0.75;;;;;;;;;;6119566;23;20096;-82
2023/04/04 11:27:56;;;;;;;2.13;0.60;;;;;;;;;;6146090;23;20738;-81
2023/04/04 11:30:22;;;;;;;2.75;0.77;;;;;;;;;;6095564;23;20037;-81
2023/04/04 11:32:49;;;;;;;2.40;0.70;;;;;;;;;;6120183;23;20084;-82
2023/04/04 11:35:15;;;;;;;3.15;0.60;;;;;;;;;;6120418;23;20101;-81
2023/04/04 11:37:49;;;;;;;2.67;0.60;;;;;;;;;;6120358;23;20036;-82
2023/04/04 11:40:15;;;;;;;1.67;0.50;;;;;;;;;;6145047;23;20017;-82
2023/04/04 11:42:40;;;;;;;1.45;0.50;;;;;;;;;;6118980;23;20028;-82
2023/04/04 11:45:08;;;;;;;1.60;0.40;;;;;;;;;;6095707;23;20383;-80
2023/04/04 11:47:34;;;;;;;1.95;0.60;;;;;;;;;;6119664;23;20048;-81
2023/04/04 11:50:00;;;;;;;3.75;0.50;;;;;;;;;;6146422;23;20076;-81
2023/04/04 11:52:32;;;;;;;1.83;0.45;;;;;;;;;;6118716;23;20319;-82
2023/04/04 11:54:58;;;;;;;2.50;0.77;;;;;;;;;;6096049;23;20033;-83
2023/04/04 11:57:23;;;;;;;1.55;0.60;;;;;;;;;;6144404;23;20052;-82
2023/04/04 11:59:51;;;;;;;2.25;0.60;;;;;;;;;;6145826;23;20048;-82
2023/04/04 12:02:23;;;;;;;2.60;0.60;;;;;;;;;;6118851;23;20021;-81
2023/04/04 12:04:50;;;;;;;1.88;0.40;;;;;;;;;;6119662;23;20140;-80
2023/04/04 12:07:16;;;;;;;1.88;0.60;;;;;;;;;;6119574;23;20025;-82
2023/04/04 12:09:42;;;;;;;2.33;0.60;;;;;;;;;;6094667;23;20018;-81
2023/04/04 12:12:13;;;;;;;1.40;0.60;;;;;;;;;;6119288;23;20096;-82
2023/04/04 12:14:39;;;;;;;1.67;0.60;;;;;;;;;;6120500;23;20089;-80
2023/04/04 12:17:04;;;;;;;1.60;0.50;;;;;;;;;;6144539;23;20448;-83
2023/04/04 12:19:30;;;;;;;2.20;0.63;;;;;;;;;;6119521;23;20112;-79
2023/04/04 12:21:56;;;;;;;0.95;0.43;;;;;;;;;;6119288;23;20407;-80
2023/04/04 12:24:22;;;;;;;1.33;0.50;;;;;;;;;;6118845;23;20028;-81
2023/04/04 12:26:50;;;;;;;1.92;0.70;;;;;;;;;;6094177;23;20372;-81
2023/04/04 12:29:16;;;;;;;;;;;;;;;;;;6096175;23;20406;-82
2023/04/04 12:31:43;;;;;;;2.13;0.50;;;;;;;;;;6168735;23;19963;-82
2023/04/04 12:34:22;;;;;;;2.10;0.70;;;;;;;;;;6118776;23;20332;-83
2023/04/04 12:36:49;;;;;;;1.65;0.50;;;;;;;;;;6117582;23;20064;-82
2023/04/04 12:39:16;;;;;;;1.17;0.50;;;;;;;;;;6095300;23;20024;-83
2023/04/04 12:41:52;;;;;;;2.67;0.50;;;;;;;;;;6117746;23;20024;-83
2023/04/04 12:44:26;;;;;;;1.67;0.68;;;;;;;;;;6117427;23;20039;-82
2023/04/04 12:46:56;;;;;;;2.65;0.60;;;;;;;;;;6092798;23;20021;-82
2023/04/04 12:49:22;;;;;;;2.53;0.60;;;;;;;;;;6080631;23;20018;-81
2023/04/04 12:51:48;;;;;;;1.60;0.60;;;;;;;;;;6117313;23;20592;-80
2023/04/04 12:54:27;;;;;;;2.50;0.73;;;;;;;;;;6119826;23;20010;-82
2023/04/04 12:56:58;;;;;;;1.60;0.50;;;;;;;;;;6094121;23;20043;-81
2023/04/04 12:59:27;;;;;;;2.17;0.70;;;;;;;;;;6118816;23;20479;-82
2023/04/04 13:01:53;;;;;;;2.85;0.70;;;;;;;;;;6118147;23;20025;-81
2023/04/04 13:04:19;;;;;;;2.00;0.75;;;;;;;;;;6119356;23;20191;-82
2023/04/04 13:06:46;;;;;;;1.38;0.57;;;;;;;;;;6119302;23;20444;-83
2023/04/04 13:09:19;;;;;;;2.35;0.75;;;;;;;;;;6095608;23;20017;-82
2023/04/04 13:12:11;;;;;;;1.50;0.60;;;;;;;;;;6118807;23;20013;-83
2023/04/04 13:15:05;;;;;;;1.58;0.55;;;;;;;;;;6112604;23;20665;-82
2023/04/04 13:17:45;;;;;;;1.58;0.60;;;;;;;;;;6138709;23;20017;-82
2023/04/04 13:20:12;;;;;;;2.55;0.50;;;;;;;;;;6119629;23;20024;-83
2023/04/04 13:22:38;;;;;;;1.27;0.57;;;;;;;;;;6144217;23;20056;-82
2023/04/04 13:25:05;;;;;;;1.65;0.52;;;;;;;;;;6094892;23;20556;-82
2023/04/04 13:27:30;;;;;;;1.80;0.50;;;;;;;;;;6094503;23;20092;-82
2023/04/04 13:29:55;;;;;;;2.25;0.50;;;;;;;;;;6095188;23;20417;-82
2023/04/04 13:32:21;;;;;;;2.42;0.70;;;;;;;;;;6118791;23;20168;-83
2023/04/04 13:34:46;;;;;;;2.83;0.70;;;;;;;;;;6145655;23;20375;-80
2023/04/04 13:37:12;;;;;;;2.03;0.65;;;;;;;;;;6144746;23;20018;-82
2023/04/04 13:39:37;;;;;;;1.67;0.60;;;;;;;;;;6095662;23;20101;-82
2023/04/04 13:42:02;;;;;;;2.17;0.77;;;;;;;;;;6117974;23;20399;-82
2023/04/04 13:44:28;;;;;;;1.17;0.40;;;;;;;;;;6144784;23;20049;-83
2023/04/04 13:46:53;;;;;;;2.08;0.65;;;;;;;;;;6118654;23;20073;-82
2023/04/04 13:49:19;;;;;;;2.55;0.60;;;;;;;;;;6144971;23;20089;-82
2023/04/04 13:51:46;;;;;;;1.70;0.50;;;;;;;;;;6118897;23;20067;-82
2023/04/04 13:54:11;;;;;;;1.40;0.45;;;;;;;;;;6144161;23;20617;-82
2023/04/04 13:56:37;;;;;;;2.17;0.50;;;;;;;;;;6143718;23;20054;-82
2023/04/04 13:59:02;;;;;;;3.28;0.70;;;;;;;;;;6095054;23;20022;-81
2023/04/04 14:01:28;;;;;;;3.97;0.70;;;;;;;;;;6144072;23;20025;-81
2023/04/04 14:03:54;;;;;;;1.48;0.55;;;;;;;;;;6119443;23;20057;-81
2023/04/04 14:06:20;;;;;;;1.10;0.50;;;;;;;;;;6093215;23;20091;-81
2023/04/04 14:08:46;;;;;;;3.70;1.10;;;;;;;;;;6145721;23;20017;-81
2023/04/04 14:11:12;;;;;;;1.20;0.50;;;;;;;;;;6117410;23;20044;-80
2023/04/04 14:13:37;;;;;;;2.60;0.65;;;;;;;;;;6118444;23;20112;-80
2023/04/04 14:16:03;;;;;;;1.25;0.60;;;;;;;;;;6145799;23;20033;-82
2023/04/04 14:18:28;;;;;;;2.05;0.60;;;;;;;;;;6120701;23;20759;-82
2023/04/04 14:20:54;;;;;;;2.05;0.70;;;;;;;;;;6095568;23;20325;-82
2023/04/04 14:23:21;;;;;;;1.63;0.50;;;;;;;;;;6122027;23;20278;-81
2023/04/04 14:25:48;;;;;;;2.75;0.77;;;;;;;;;;6121008;23;20410;-82
2023/04/04 14:28:14;;;;;;;2.60;0.70;;;;;;;;;;6122686;23;20033;-81
2023/04/04 14:30:40;;;;;;;2.40;0.90;;;;;;;;;;6096296;23;20037;-81
2023/04/04 14:33:05;;;;;;;2.15;0.82;;;;;;;;;;6120877;23;20448;-81
2023/04/04 14:35:30;;;;;;;3.45;0.80;;;;;;;;;;6145996;23;20017;-81
2023/04/04 14:37:56;;;;;;;1.63;0.50;;;;;;;;;;6147329;23;20084;-81
2023/04/04 14:40:21;;;;;;;1.45;0.50;;;;;;;;;;6146936;23;20403;-82